Time;durP1;ratioP1;P1;durP2;ratioP2;P2;SDS_P1;SDS_P2;PMS_P1;PMS_P2;Temp;Humidity;BMP_temperature;BMP_pressure;BME280_temperature;BME280_humidity;BME280_pressure;Samples;Min_cycle;Max_cycle;Signal;HPM_P1;HPM_P2
2023/03/14 00:00:29;;;;;;;9.37;2.40;;;12.70;99.30;;;;;;5048471;28;20457;-86
2023/03/14 00:03:05;;;;;;;;;;;;;;;;;;;;;
2023/03/14 00:05:59;;;;;;;9.73;2.30;;;12.70;66.60;;;;;;5045277;28;20960;-88
2023/03/14 00:08:39;;;;;;;5.33;2.60;;;12.70;1.00;;;;;;5032096;28;20985;-86
2023/03/14 00:11:15;;;;;;;8.50;2.17;;;12.60;99.90;;;;;;5033681;28;20408;-86
2023/03/14 00:13:50;;;;;;;;;;;;;;;;;;;;;
2023/03/14 00:16:20;;;;;;;3.60;1.50;;;12.40;99.90;;;;;;5037913;28;20417;-87
2023/03/14 00:18:49;;;;;;;6.23;2.00;;;12.30;1.00;;;;;;5026792;28;20911;-87
2023/03/14 00:21:17;;;;;;;6.93;1.30;;;12.10;1.00;;;;;;5024897;28;20433;-87
2023/03/14 00:23:53;;;;;;;2.40;1.03;;;11.90;99.90;;;;;;5038270;28;20424;-86
2023/03/14 00:26:23;;;;;;;4.70;1.40;;;11.70;1.00;;;;;;5056324;28;20466;-86
2023/03/14 00:28:55;;;;;;;9.47;1.20;;;11.50;99.90;;;;;;5030911;28;20949;-86
2023/03/14 00:31:21;;;;;;;5.50;1.77;;;11.30;1.00;;;;;;5036511;28;20948;-86
2023/03/14 00:33:47;;;;;;;2.93;0.77;;;11.20;98.90;;;;;;5045386;28;20421;-85
2023/03/14 00:36:15;;;;;;;2.80;1.10;;;11.10;99.90;;;;;;5044830;28;21358;-86
2023/03/14 00:38:53;;;;;;;1.37;0.87;;;10.90;1.00;;;;;;5035883;28;20206;-86
2023/03/14 00:41:40;;;;;;;4.40;1.33;;;10.80;1.00;;;;;;5034062;28;20424;-86
2023/03/14 00:47:04;;;;;;;5.23;1.27;;;10.60;89.20;;;;;;5042335;28;20811;-86
2023/03/14 00:49:30;;;;;;;5.13;1.27;;;10.50;99.90;;;;;;5035154;28;20956;-86
2023/03/14 00:52:00;;;;;;;3.93;1.10;;;10.50;99.90;;;;;;5051979;28;20431;-85
2023/03/14 00:54:31;;;;;;;4.33;2.07;;;10.50;99.90;;;;;;5034302;28;20182;-85
2023/03/14 00:56:57;;;;;;;3.53;1.20;;;10.50;99.90;;;;;;5041863;28;20837;-85
2023/03/14 00:59:28;;;;;;;6.60;1.70;;;10.50;99.90;;;;;;5038488;28;20451;-87
2023/03/14 01:01:58;;;;;;;5.20;1.40;;;10.60;99.90;;;;;;5031584;28;20710;-86
2023/03/14 01:04:26;;;;;;;6.30;1.57;;;10.60;99.90;;;;;;5030448;28;20436;-86
2023/03/14 01:06:57;;;;;;;9.33;1.87;;;10.60;99.90;;;;;;5039427;28;20460;-85
2023/03/14 01:09:33;;;;;;;4.20;1.43;;;10.60;99.90;;;;;;5027896;28;20460;-85
2023/03/14 01:12:01;;;;;;;6.67;2.80;;;10.60;99.90;;;;;;5035354;28;20521;-86
2023/03/14 01:14:38;;;;;;;4.43;1.47;;;10.70;99.90;;;;;;5020265;28;20440;-85
2023/03/14 01:17:05;;;;;;;5.90;1.97;;;10.70;99.90;;;;;;5030184;28;20531;-85
2023/03/14 01:19:34;;;;;;;3.23;1.37;;;10.80;99.90;;;;;;5047906;28;20517;-85
2023/03/14 01:22:08;;;;;;;6.77;1.33;;;10.80;99.90;;;;;;5026013;28;20494;-87
2023/03/14 01:24:36;;;;;;;6.67;1.60;;;10.80;99.90;;;;;;5048124;28;20513;-84
2023/03/14 01:27:04;;;;;;;10.47;1.87;;;10.90;99.90;;;;;;5024369;28;20777;-85
2023/03/14 01:29:35;;;;;;;7.37;1.90;;;10.90;99.90;;;;;;5042801;28;20437;-86
2023/03/14 01:32:03;;;;;;;7.13;2.03;;;10.90;99.90;;;;;;5025642;28;20432;-86
2023/03/14 01:34:31;;;;;;;7.30;1.90;;;10.90;99.90;;;;;;5041695;28;20864;-85
2023/03/14 01:37:07;;;;;;;;;;;;;;;;;;;;;
2023/03/14 01:40:00;;;;;;;5.13;1.70;;;10.90;99.90;;;;;;5043902;28;20455;-85
2023/03/14 01:42:28;;;;;;;12.43;2.33;;;10.90;99.90;;;;;;5047572;28;20470;-85
2023/03/14 01:44:56;;;;;;;6.77;2.17;;;10.90;57.40;;;;;;5038682;28;20504;-86
2023/03/14 01:47:52;;;;;;;;;;;;;;;;;;;;;
2023/03/14 01:50:21;;;;;;;11.37;2.00;;;10.90;1.00;;;;;;5043682;28;20808;-84
2023/03/14 01:52:52;;;;;;;8.33;2.20;;;10.80;1.00;;;;;;5033271;28;20756;-87
2023/03/14 01:55:23;;;;;;;5.77;1.87;;;10.70;1.00;;;;;;5025550;28;20509;-86
2023/03/14 01:57:53;;;;;;;5.77;1.20;;;10.70;7.60;;;;;;5032758;28;20479;-85
2023/03/14 02:00:22;;;;;;;7.90;1.40;;;10.70;1.00;;;;;;5025776;28;20429;-85
2023/03/14 02:02:56;;;;;;;4.90;1.50;;;10.70;1.00;;;;;;5028006;28;20952;-85
2023/03/14 02:05:32;;;;;;;3.90;1.50;;;10.70;1.00;;;;;;5026518;28;20451;-85
2023/03/14 02:08:02;;;;;;;6.10;1.43;;;10.70;1.00;;;;;;5033731;28;20478;-85
2023/03/14 02:10:43;;;;;;;6.47;1.27;;;10.80;1.00;;;;;;5016085;28;20439;-85
2023/03/14 02:13:13;;;;;;;4.90;1.20;;;10.80;1.00;;;;;;5024914;28;20502;-86
2023/03/14 02:15:47;;;;;;;13.80;1.53;;;10.80;1.00;;;;;;5034791;28;20438;-87
2023/03/14 02:18:18;;;;;;;8.70;2.57;;;10.80;1.00;;;;;;5047163;28;20438;-85
2023/03/14 02:21:08;;;;;;;7.20;1.80;;;10.80;1.00;;;;;;5046766;28;20503;-86
2023/03/14 02:24:14;;;;;;;12.60;1.43;;;10.80;1.00;;;;;;5029946;28;20455;-85
2023/03/14 02:27:06;;;;;;;3.80;1.40;;;10.90;1.00;;;;;;5035053;28;20439;-86
2023/03/14 02:29:36;;;;;;;6.07;1.60;;;10.90;1.00;;;;;;5032945;28;20467;-86
2023/03/14 02:32:05;;;;;;;5.73;1.43;;;10.90;1.00;;;;;;5046914;28;20481;-85
2023/03/14 02:34:44;;;;;;;6.07;1.80;;;10.90;1.00;;;;;;5046211;28;20485;-85
2023/03/14 02:37:11;;;;;;;7.10;1.40;;;10.90;1.00;;;;;;5033857;28;20508;-85
2023/03/14 02:39:41;;;;;;;4.30;1.90;;;11.00;1.00;;;;;;5036338;28;20447;-86
2023/03/14 02:42:07;;;;;;;10.20;2.47;;;11.00;1.00;;;;;;5045086;28;20432;-84
2023/03/14 02:44:35;;;;;;;4.03;1.60;;;11.00;1.00;;;;;;5044818;28;20462;-85
2023/03/14 02:47:08;;;;;;;5.33;2.53;;;11.00;1.00;;;;;;5042120;28;20193;-86
2023/03/14 02:49:51;;;;;;;;;;;;;;;;;;;;;
2023/03/14 02:52:22;;;;;;;11.23;1.90;;;11.10;99.90;;;;;;5054379;28;20957;-85
2023/03/14 02:54:56;;;;;;;6.23;1.53;;;11.10;99.90;;;;;;5051168;28;20416;-85
2023/03/14 02:57:25;;;;;;;13.90;2.10;;;11.10;1.00;;;;;;5037393;28;20511;-85
2023/03/14 02:59:55;;;;;;;10.47;2.63;;;11.10;1.00;;;;;;5054267;28;20847;-86
2023/03/14 03:02:26;;;;;;;7.17;2.73;;;11.00;1.00;;;;;;5036097;28;20436;-86
2023/03/14 03:04:59;;;;;;;7.70;2.20;;;11.00;7.60;;;;;;5054421;28;20460;-85
2023/03/14 03:07:27;;;;;;;6.60;1.97;;;10.90;99.90;;;;;;5036255;28;20412;-85
2023/03/14 03:10:05;;;;;;;7.13;2.03;;;10.90;99.90;;;;;;5053703;28;20467;-85
2023/03/14 03:12:40;;;;;;;11.27;2.60;;;10.80;99.90;;;;;;5053605;28;20493;-86
2023/03/14 03:15:08;;;;;;;16.07;3.00;;;10.80;99.90;;;;;;5044324;28;20840;-85
2023/03/14 03:17:42;;;;;;;19.30;3.07;;;10.70;99.90;;;;;;5054241;28;20416;-87
2023/03/14 03:20:09;;;;;;;15.57;3.17;;;10.60;1.00;;;;;;5052520;28;20467;-85
2023/03/14 03:22:49;;;;;;;13.27;3.93;;;10.50;1.00;;;;;;5054009;28;20481;-86
2023/03/14 03:25:45;;;;;;;;;;;;;;;;;;;;;
2023/03/14 03:28:13;;;;;;;17.07;2.93;;;10.40;1.00;;;;;;5047728;28;20435;-86
2023/03/14 03:30:49;;;;;;;8.53;2.90;;;10.40;1.00;;;;;;5036326;28;20495;-86
2023/03/14 03:33:17;;;;;;;12.20;3.67;;;10.40;1.00;;;;;;5037934;28;20814;-85
2023/03/14 03:36:07;;;;;;;13.53;3.67;;;10.40;1.00;;;;;;5052737;28;20440;-85
2023/03/14 03:38:33;;;;;;;17.13;3.40;;;10.40;1.00;;;;;;5051559;28;20446;-86
2023/03/14 03:41:20;;;;;;;;;;;;;;;;;;;;;
2023/03/14 03:44:08;;;;;;;10.00;3.07;;;10.40;1.00;;;;;;5047476;28;20186;-86
2023/03/14 03:46:53;;;;;;;2.40;1.60;;;10.40;1.00;;;;;;5029668;28;20493;-85
2023/03/14 03:49:39;;;;;;;;;;;;;;;;;;;;;
2023/03/14 03:52:12;;;;;;;9.23;2.13;;;10.40;1.00;;;;;;5052982;28;20434;-86
2023/03/14 03:54:38;;;;;;;9.93;2.40;;;10.40;1.00;;;;;;5037805;28;20444;-86
2023/03/14 03:57:21;;;;;;;10.90;2.20;;;10.40;1.00;;;;;;5038310;28;20436;-85
2023/03/14 03:59:52;;;;;;;17.83;4.10;;;10.40;1.00;;;;;;5051462;28;20201;-85
2023/03/14 04:02:51;;;;;;;;;;;;;;;;;;;;;
2023/03/14 04:05:27;;;;;;;6.47;1.67;;;10.40;1.00;;;;;;5053421;28;20471;-85
2023/03/14 04:08:10;;;;;;;5.33;1.33;;;10.40;1.00;;;;;;5043869;28;20415;-85
2023/03/14 04:10:46;;;;;;;5.97;1.33;;;10.40;1.00;;;;;;5045455;28;20499;-85
2023/03/14 04:13:26;;;;;;;;;;;;;;;;;;;;;
2023/03/14 04:15:58;;;;;;;5.83;1.30;;;10.40;1.00;;;;;;5053552;28;20416;-85
2023/03/14 04:18:44;;;;;;;2.50;1.10;;;10.40;1.00;;;;;;5054286;28;20491;-86
2023/03/14 04:24:03;;;;;;;6.00;3.00;;;10.40;1.00;;;;;;5044292;28;20456;-85
2023/03/14 04:26:59;;;;;;;;;;;;;;;;;;;;;
2023/03/14 04:29:28;;;;;;;3.33;0.70;;;10.40;1.00;;;;;;5054648;28;20458;-85
2023/03/14 04:31:56;;;;;;;7.67;0.90;;;10.40;1.00;;;;;;5041346;28;20491;-85
2023/03/14 04:34:43;;;;;;;;;;;;;;;;;;;;;
2023/03/14 04:37:43;;;;;;;3.30;0.87;;;10.40;1.00;;;;;;5040886;28;20517;-84
2023/03/14 04:40:39;;;;;;;2.37;0.70;;;10.40;1.00;;;;;;5032834;28;20476;-85
2023/03/14 04:43:34;;;;;;;3.03;0.87;;;10.30;1.00;;;;;;5046528;28;20951;-86
2023/03/14 04:46:14;;;;;;;;;;;;;;;;;;;;;
2023/03/14 04:48:52;;;;;;;0.90;0.60;;;10.40;1.00;;;;;;5046540;28;20436;-85
2023/03/14 04:51:26;;;;;;;1.37;0.93;;;10.40;1.00;;;;;;5034024;28;20420;-85
2023/03/14 04:53:55;;;;;;;4.53;0.70;;;10.40;1.00;;;;;;5036447;28;20423;-85
2023/03/14 04:56:44;;;;;;;1.13;0.50;;;10.40;1.00;;;;;;5022644;28;20427;-85
2023/03/14 04:59:15;;;;;;;1.40;0.60;;;10.40;1.00;;;;;;5030938;28;20507;-85
2023/03/14 05:01:51;;;;;;;1.50;0.60;;;10.40;1.00;;;;;;5033409;28;20427;-85
2023/03/14 05:04:16;;;;;;;1.33;0.70;;;10.40;1.00;;;;;;5033748;28;20438;-85
2023/03/14 05:06:42;;;;;;;2.13;0.70;;;10.40;1.00;;;;;;5042513;28;20926;-85
2023/03/14 05:09:17;;;;;;;1.07;0.70;;;10.40;1.00;;;;;;5041189;28;20595;-84
2023/03/14 05:12:04;;;;;;;0.90;0.50;;;10.40;1.00;;;;;;5030396;28;20215;-85
2023/03/14 05:14:40;;;;;;;;;;;;;;;;;;;;;
2023/03/14 05:17:29;;;;;;;;;;;;;;;;;;;;;
2023/03/14 05:20:28;;;;;;;;;;;;;;;;;;;;;
2023/03/14 05:23:14;;;;;;;0.90;0.60;;;10.40;1.00;;;;;;5049224;28;20443;-86
2023/03/14 05:26:03;;;;;;;;;;;;;;;;;;;;;
2023/03/14 05:28:31;;;;;;;0.90;0.50;;;10.30;1.00;;;;;;5044643;28;20460;-85
2023/03/14 05:30:57;;;;;;;0.90;0.70;;;10.20;1.00;;;;;;5032664;28;20454;-86
2023/03/14 05:33:22;;;;;;;1.10;0.60;;;10.20;1.00;;;;;;5047477;28;20436;-85
2023/03/14 05:35:48;;;;;;;1.10;0.60;;;10.20;1.00;;;;;;5017590;28;20681;-86
2023/03/14 05:38:14;;;;;;;0.90;0.50;;;10.20;1.00;;;;;;5045853;28;20213;-86
2023/03/14 05:40:42;;;;;;;1.60;0.60;;;10.20;1.00;;;;;;5021452;28;20586;-85
2023/03/14 05:43:10;;;;;;;1.40;0.50;;;10.20;1.00;;;;;;5029161;28;20190;-85
2023/03/14 05:45:35;;;;;;;1.00;0.57;;;10.20;1.00;;;;;;5042680;28;20465;-85
2023/03/14 05:48:04;;;;;;;2.20;0.60;;;10.20;1.00;;;;;;5029997;28;20511;-85
2023/03/14 05:50:29;;;;;;;0.85;0.50;;;10.20;1.00;;;;;;5027609;28;20193;-85
2023/03/14 05:52:55;;;;;;;1.00;0.50;;;10.20;1.00;;;;;;5035430;28;20190;-85
2023/03/14 05:55:21;;;;;;;0.90;0.40;;;10.20;1.00;;;;;;5032079;28;20193;-85
2023/03/14 05:57:49;;;;;;;0.80;0.40;;;10.30;1.00;;;;;;5052041;28;20655;-84
2023/03/14 06:00:15;;;;;;;0.80;0.60;;;10.30;1.00;;;;;;5045966;28;20206;-84
2023/03/14 06:02:43;;;;;;;0.90;0.60;;;10.30;1.00;;;;;;5028616;28;21219;-85
2023/03/14 06:05:09;;;;;;;1.27;0.60;;;10.40;1.00;;;;;;5028035;28;20484;-85
2023/03/14 06:07:35;;;;;;;0.80;0.50;;;10.40;1.00;;;;;;5046670;28;20436;-85
2023/03/14 06:10:00;;;;;;;0.80;0.40;;;10.50;1.00;;;;;;5032632;28;20205;-85
2023/03/14 06:12:26;;;;;;;1.63;0.60;;;10.50;1.00;;;;;;5035603;28;20193;-85
2023/03/14 06:14:51;;;;;;;1.00;0.60;;;10.50;1.00;;;;;;5032197;28;20185;-85
2023/03/14 06:17:17;;;;;;;1.00;0.60;;;10.50;1.00;;;;;;5048601;28;20662;-84
2023/03/14 06:19:45;;;;;;;1.10;0.50;;;10.50;1.00;;;;;;5048877;28;20219;-84
2023/03/14 06:22:10;;;;;;;1.03;0.50;;;10.60;1.00;;;;;;5045590;28;20219;-86
2023/03/14 06:24:38;;;;;;;0.90;0.50;;;10.60;1.00;;;;;;5033937;28;20460;-85
2023/03/14 06:27:04;;;;;;;2.80;0.50;;;10.80;1.00;;;;;;5043716;28;20185;-87
2023/03/14 06:29:30;;;;;;;1.10;0.60;;;10.80;1.00;;;;;;5040652;28;20953;-86
2023/03/14 06:31:55;;;;;;;0.90;0.50;;;10.80;1.00;;;;;;5038160;28;20185;-85
2023/03/14 06:34:24;;;;;;;1.10;0.50;;;10.90;1.00;;;;;;5037349;28;20461;-85
2023/03/14 06:36:49;;;;;;;0.80;0.50;;;10.90;1.00;;;;;;5045297;28;20182;-85
2023/03/14 06:39:17;;;;;;;1.17;0.50;;;10.90;1.00;;;;;;5053410;28;20478;-86
2023/03/14 06:41:43;;;;;;;1.00;0.50;;;10.80;1.00;;;;;;5043721;28;20201;-85
2023/03/14 06:44:08;;;;;;;0.90;0.50;;;10.80;1.00;;;;;;5046372;28;20436;-82
2023/03/14 06:46:34;;;;;;;0.90;0.50;;;10.80;1.00;;;;;;5044651;28;20192;-85
2023/03/14 06:48:59;;;;;;;1.33;0.50;;;10.80;1.00;;;;;;5036139;28;20725;-86
2023/03/14 06:51:25;;;;;;;0.90;0.50;;;10.90;1.00;;;;;;5053601;28;20197;-84
2023/03/14 06:53:50;;;;;;;1.00;0.60;;;11.00;1.00;;;;;;5054055;28;20648;-85
2023/03/14 06:56:16;;;;;;;1.10;0.60;;;11.10;1.00;;;;;;5047371;28;20187;-85
2023/03/14 06:58:41;;;;;;;0.87;0.53;;;11.10;1.00;;;;;;5038800;28;20205;-85
2023/03/14 07:01:20;;;;;;;2.43;0.57;;;11.30;1.00;;;;;;5054935;28;20189;-85
2023/03/14 07:03:45;;;;;;;1.50;0.60;;;11.60;1.00;;;;;;5037633;28;20188;-84
2023/03/14 07:06:11;;;;;;;1.00;0.60;;;11.90;1.00;;;;;;5056133;28;20989;-85
2023/03/14 07:08:37;;;;;;;1.50;0.60;;;12.20;99.90;;;;;;5056550;28;20226;-85
2023/03/14 07:11:03;;;;;;;1.87;0.60;;;12.60;99.90;;;;;;5042181;28;20188;-86
2023/03/14 07:13:29;;;;;;;1.10;0.60;;;12.70;84.00;;;;;;5060624;28;20443;-86
2023/03/14 07:15:54;;;;;;;1.87;0.70;;;12.50;50.10;;;;;;5059837;28;20258;-85
2023/03/14 07:18:20;;;;;;;1.30;0.80;;;12.30;99.90;;;;;;5045320;28;20209;-85
2023/03/14 07:20:46;;;;;;;2.37;0.70;;;12.10;99.90;;;;;;5056910;28;20193;-84
2023/03/14 07:23:11;;;;;;;1.17;0.80;;;12.00;99.90;;;;;;5047164;28;20189;-84
2023/03/14 07:25:39;;;;;;;1.00;0.70;;;11.90;99.90;;;;;;5052628;28;20984;-84
2023/03/14 07:28:07;;;;;;;1.80;0.97;;;11.90;99.90;;;;;;5057841;28;20258;-84
2023/03/14 07:30:32;;;;;;;2.17;1.00;;;12.00;99.90;;;;;;5038934;28;20515;-85
2023/03/14 07:32:58;;;;;;;1.43;1.00;;;12.00;99.90;;;;;;5044929;28;20467;-84
2023/03/14 07:35:23;;;;;;;1.23;0.80;;;12.10;99.90;;;;;;5046302;28;20185;-84
2023/03/14 07:37:51;;;;;;;1.30;0.70;;;12.40;99.90;;;;;;5058207;28;20228;-84
2023/03/14 07:40:16;;;;;;;2.03;0.87;;;12.80;80.20;;;;;;5048666;28;20204;-85
2023/03/14 07:42:43;;;;;;;1.97;0.90;;;13.30;1.00;;;;;;5057783;28;20421;-84
2023/03/14 07:45:10;;;;;;;1.40;0.87;;;13.90;1.00;;;;;;5040695;28;20258;-84
2023/03/14 07:47:36;;;;;;;1.20;1.00;;;14.60;1.00;;;;;;5048977;28;20932;-84
2023/03/14 07:50:03;;;;;;;2.13;0.83;;;15.10;1.00;;;;;;5053562;28;20436;-84
2023/03/14 07:52:29;;;;;;;1.10;0.80;;;15.30;1.00;;;;;;5055879;28;20815;-84
2023/03/14 07:54:54;;;;;;;3.10;1.10;;;15.10;99.90;;;;;;5056610;28;20514;-84
2023/03/14 07:57:23;;;;;;;1.23;0.70;;;15.00;1.00;;;;;;5049448;28;20185;-84
2023/03/14 07:59:49;;;;;;;1.20;0.80;;;14.90;1.00;;;;;;5048616;28;22076;-84
2023/03/14 08:02:15;;;;;;;3.13;0.90;;;14.50;1.00;;;;;;5035501;28;20440;-85
2023/03/14 08:04:57;;;;;;;1.10;0.70;;;14.20;6.80;;;;;;5023321;28;20699;-85
2023/03/14 08:07:22;;;;;;;1.30;0.83;;;13.90;1.00;;;;;;5041950;28;20185;-85
2023/03/14 08:36:32;;;;;;;;;;;;;;;;;;;;;
2023/03/14 08:43:22;;;;;;;4.47;1.27;;;13.60;1.00;;;;;;4974795;28;20414;-82
2023/03/14 08:49:45;;;;;;;;;;;;;;;;;;;;;
2023/03/14 08:53:05;;;;;;;;;;;;;;;;;;;;;
2023/03/14 09:04:28;;;;;;;1.40;0.70;;;12.10;1.00;;;;;;5026277;28;20433;-82
2023/03/14 09:07:03;;;;;;;2.20;0.70;;;11.90;99.90;;;;;;5029113;28;20823;-83
2023/03/14 09:09:46;;;;;;;1.77;0.70;;;11.70;99.90;;;;;;5031457;28;20425;-82
2023/03/14 09:12:21;;;;;;;;;;;;;;;;;;;;;
2023/03/14 09:14:55;;;;;;;3.30;3.00;;;11.20;99.90;;;;;;5028518;28;20448;-83
2023/03/14 09:17:39;;;;;;;;;;;;;;;;;;;;;
2023/03/14 09:20:11;;;;;;;1.90;1.53;;;10.60;1.00;;;;;;5030871;28;20500;-81
2023/03/14 09:22:59;;;;;;;2.20;1.60;;;10.50;1.00;;;;;;5016518;28;20464;-82
2023/03/14 09:25:47;;;;;;;3.70;2.97;;;10.50;99.90;;;;;;5002941;28;20465;-82
2023/03/14 09:28:22;;;;;;;4.73;4.33;;;10.40;99.90;;;;;;5011324;28;20475;-82
2023/03/14 09:30:52;;;;;;;2.77;2.10;;;10.60;1.00;;;;;;5030753;28;20480;-82
2023/03/14 13:20:07;;;;;;;;;;;;;;;;;;;;;
2023/03/14 13:23:39;;;;;;;;;;;;;;;;;;;;;
2023/03/14 13:27:03;;;;;;;8.20;2.30;;;10.60;1.00;;;;;;4864622;29;20551;-83
2023/03/14 13:30:08;;;;;;;6.60;2.40;;;10.40;1.00;;;;;;4887494;28;20453;-83
2023/03/14 13:32:56;;;;;;;9.67;1.80;;;10.10;1.00;;;;;;4980856;28;20443;-83
2023/03/14 13:42:15;;;;;;;;;;;;;;;;;;;;;
2023/03/14 13:45:13;;;;;;;;;;;;;;;;;;;;;
2023/03/14 13:48:00;;;;;;;7.13;2.77;;;10.20;1.00;;;;;;4975218;28;20538;-81
2023/03/14 13:50:36;;;;;;;19.37;4.17;;;10.10;1.00;;;;;;4973632;28;20727;-82
2023/03/14 13:53:14;;;;;;;7.80;2.23;;;10.10;1.00;;;;;;4973799;28;20941;-82
2023/03/14 13:55:49;;;;;;;;;;;;;;;;;;;;;
2023/03/14 14:01:28;;;;;;;11.33;2.60;;;10.30;1.00;;;;;;4974068;28;20984;-82
2023/03/14 14:04:09;;;;;;;9.10;2.53;;;10.40;1.00;;;;;;4972868;28;20529;-81
2023/03/14 14:07:08;;;;;;;;;;;;;;;;;;;;;
2023/03/14 14:10:12;;;;;;;19.07;2.90;;;10.50;1.00;;;;;;4975888;28;20510;-81
2023/03/14 14:12:55;;;;;;;;;;;;;;;;;;;;;
2023/03/14 14:15:45;;;;;;;12.43;2.60;;;10.80;1.00;;;;;;4974431;28;20435;-81
2023/03/14 14:18:31;;;;;;;10.00;3.20;;;10.90;1.00;;;;;;4973640;28;21137;-81
2023/03/14 14:21:02;;;;;;;10.37;2.77;;;10.90;1.00;;;;;;4963634;28;20447;-82
2023/03/14 14:23:47;;;;;;;12.67;3.70;;;10.80;1.00;;;;;;4978976;28;20439;-81
2023/03/14 14:26:30;;;;;;;19.10;4.00;;;10.80;1.00;;;;;;4980036;28;20513;-83
2023/03/14 14:29:32;;;;;;;12.10;5.73;;;10.80;1.00;;;;;;4983839;28;20499;-81
2023/03/14 14:32:09;;;;;;;12.30;3.90;;;10.80;1.00;;;;;;4978488;28;20826;-80
2023/03/14 14:35:10;;;;;;;10.97;2.70;;;10.70;1.00;;;;;;4977787;28;20850;-82
2023/03/14 14:37:51;;;;;;;12.93;7.10;;;10.70;1.00;;;;;;4969115;28;20514;-80
2023/03/14 14:40:20;;;;;;;14.27;3.50;;;10.60;1.00;;;;;;4980164;28;20558;-79
2023/03/14 14:42:47;;;;;;;12.10;3.00;;;10.60;1.00;;;;;;4978444;28;20446;-80
2023/03/14 14:45:20;;;;;;;16.43;3.30;;;10.60;1.00;;;;;;4978792;28;20455;-80
2023/03/14 14:47:53;;;;;;;15.10;3.50;;;10.50;1.00;;;;;;4984156;28;20438;-80
2023/03/14 14:50:29;;;;;;;14.77;3.33;;;10.60;1.00;;;;;;4996068;28;20466;-82
2023/03/14 14:53:01;;;;;;;10.10;3.77;;;10.50;1.00;;;;;;5000400;28;20470;-82
2023/03/14 14:55:38;;;;;;;17.30;4.77;;;10.50;1.00;;;;;;5003054;28;20463;-82
2023/03/14 14:58:22;;;;;;;12.03;3.20;;;10.60;1.00;;;;;;4991456;28;20438;-84
2023/03/14 15:00:58;;;;;;;14.57;3.60;;;10.60;1.00;;;;;;4995297;28;20526;-83
2023/03/14 15:03:27;;;;;;;14.10;3.00;;;10.70;1.00;;;;;;4991207;28;20465;-82
2023/03/14 15:05:55;;;;;;;14.13;3.60;;;10.70;1.00;;;;;;4998445;28;20439;-81
2023/03/14 15:08:21;;;;;;;25.20;3.90;;;10.70;1.00;;;;;;4999993;28;20444;-82
2023/03/14 15:10:46;;;;;;;15.53;4.30;;;10.70;99.90;;;;;;4996296;28;20475;-81
2023/03/14 15:13:12;;;;;;;17.00;3.40;;;10.70;99.90;;;;;;5002572;28;20418;-82
2023/03/14 15:15:37;;;;;;;12.50;3.20;;;10.60;99.90;;;;;;4997693;28;20211;-83
2023/03/14 15:18:15;;;;;;;13.97;3.83;;;10.60;99.90;;;;;;4996696;28;20686;-81
2023/03/14 15:20:40;;;;;;;20.43;8.20;;;10.50;99.90;;;;;;4986044;28;20234;-79
2023/03/14 15:23:14;;;;;;;18.67;4.50;;;10.30;99.90;;;;;;4992698;28;20446;-83
2023/03/14 15:25:40;;;;;;;10.87;3.63;;;10.20;99.90;;;;;;4993157;28;20192;-83
2023/03/14 15:28:16;;;;;;;9.53;3.27;;;10.20;99.90;;;;;;4994981;28;20438;-79
2023/03/14 15:30:41;;;;;;;18.77;3.97;;;10.20;99.90;;;;;;4991014;28;20207;-79
2023/03/14 15:33:08;;;;;;;8.90;3.10;;;10.20;99.90;;;;;;4986231;28;20458;-78
2023/03/14 15:35:37;;;;;;;10.70;3.50;;;10.20;99.90;;;;;;4983528;28;20640;-78
2023/03/14 15:38:03;;;;;;;6.77;2.10;;;10.10;99.90;;;;;;4983527;28;20426;-78
2023/03/14 15:40:34;;;;;;;19.10;2.73;;;10.10;99.90;;;;;;4979055;28;20459;-79
2023/03/14 15:42:59;;;;;;;8.10;2.40;;;10.10;99.90;;;;;;4984731;28;20535;-78
2023/03/14 15:45:25;;;;;;;11.93;2.10;;;10.10;99.90;;;;;;4984979;28;20525;-78
2023/03/14 15:47:50;;;;;;;4.97;1.73;;;10.00;99.90;;;;;;4995541;28;20188;-80
2023/03/14 15:50:16;;;;;;;8.77;2.00;;;10.00;99.90;;;;;;4991739;28;20218;-80
2023/03/14 15:52:41;;;;;;;9.00;1.83;;;10.10;99.90;;;;;;4994323;28;20823;-79
2023/03/14 15:55:07;;;;;;;4.70;2.33;;;10.10;99.90;;;;;;4984705;28;20258;-80
2023/03/14 15:57:33;;;;;;;5.10;1.60;;;10.10;99.90;;;;;;4988544;28;20266;-81
2023/03/14 15:59:58;;;;;;;13.70;2.50;;;10.00;99.90;;;;;;4972836;28;20432;-79
2023/03/14 16:02:24;;;;;;;9.63;2.27;;;10.00;99.90;;;;;;4981210;28;20198;-78
2023/03/14 16:04:49;;;;;;;9.00;2.17;;;10.00;99.90;;;;;;4974630;28;20184;-82
2023/03/14 16:07:15;;;;;;;10.47;2.07;;;10.00;99.90;;;;;;4975494;28;20176;-79
2023/03/14 16:09:41;;;;;;;18.50;3.27;;;9.90;99.90;;;;;;4985796;28;20184;-78
2023/03/14 16:12:07;;;;;;;6.60;2.17;;;9.90;99.90;;;;;;4988749;28;20196;-81
2023/03/14 16:14:33;;;;;;;5.80;1.57;;;9.80;99.90;;;;;;4985842;28;20189;-80
2023/03/14 16:16:58;;;;;;;11.67;2.50;;;9.60;99.90;;;;;;4971479;28;20514;-82
2023/03/14 16:19:30;;;;;;;8.50;2.00;;;9.50;99.90;;;;;;4993964;28;20176;-83
2023/03/14 16:21:56;;;;;;;4.97;1.73;;;9.50;99.90;;;;;;4996383;28;20208;-83
2023/03/14 16:24:21;;;;;;;6.87;1.90;;;9.40;99.90;;;;;;4989478;28;20430;-81
2023/03/14 16:26:47;;;;;;;8.10;1.90;;;9.40;99.90;;;;;;4990689;28;20278;-82
2023/03/14 16:29:13;;;;;;;7.27;2.60;;;9.30;99.90;;;;;;4991335;28;20192;-80
2023/03/14 16:31:41;;;;;;;10.43;2.03;;;9.20;99.90;;;;;;4985693;28;20203;-80
2023/03/14 16:34:08;;;;;;;9.43;2.40;;;9.10;99.90;;;;;;4975775;28;20678;-83
2023/03/14 16:36:34;;;;;;;8.52;2.05;;;9.10;99.90;;;;;;4988481;28;20459;-80
2023/03/14 16:38:59;;;;;;;5.27;1.87;;;9.00;99.90;;;;;;4991773;28;20195;-80
2023/03/14 16:41:28;;;;;;;9.13;2.17;;;9.00;99.90;;;;;;4991676;28;20207;-80
2023/03/14 16:43:55;;;;;;;7.25;1.77;;;8.90;99.90;;;;;;4986860;28;20720;-80
2023/03/14 16:46:21;;;;;;;9.07;2.00;;;8.90;99.90;;;;;;4993505;28;20186;-80
2023/03/14 16:48:47;;;;;;;6.90;1.50;;;8.90;99.90;;;;;;5002048;28;20558;-82
2023/03/14 16:51:15;;;;;;;6.97;1.97;;;8.80;99.90;;;;;;5000302;28;20478;-80
2023/03/14 16:53:40;;;;;;;3.80;1.80;;;8.80;99.90;;;;;;4990922;28;20191;-82
2023/03/14 16:56:06;;;;;;;9.80;2.03;;;8.80;99.90;;;;;;4980648;28;20534;-78
2023/03/14 16:58:32;;;;;;;6.88;2.20;;;8.70;99.90;;;;;;4988101;28;20686;-81
2023/03/14 17:00:59;;;;;;;7.50;1.63;;;8.70;99.90;;;;;;4980599;28;20204;-79
2023/03/14 17:03:26;;;;;;;18.15;4.05;;;8.60;99.90;;;;;;4992300;28;20784;-80
2023/03/14 17:05:52;;;;;;;8.48;2.20;;;8.50;99.90;;;;;;4991630;28;20191;-80
2023/03/14 17:08:19;;;;;;;8.20;2.88;;;8.50;99.90;;;;;;4979041;28;20186;-81
2023/03/14 17:10:45;;;;;;;8.82;2.88;;;8.40;99.90;;;;;;4978375;28;20214;-80
2023/03/14 17:13:13;;;;;;;7.03;2.80;;;8.30;99.90;;;;;;4972067;28;20192;-80
2023/03/14 17:15:43;;;;;;;10.98;2.20;;;8.20;99.90;;;;;;4975225;28;21373;-82
2023/03/14 17:18:08;;;;;;;5.65;1.80;;;8.00;99.90;;;;;;4976264;28;20207;-80
2023/03/14 17:20:34;;;;;;;7.00;1.70;;;7.90;99.90;;;;;;4974749;28;20582;-83
2023/03/14 17:23:00;;;;;;;9.13;2.07;;;7.80;99.90;;;;;;4974918;28;20212;-81
2023/03/14 17:25:26;;;;;;;7.57;1.80;;;7.70;99.90;;;;;;4976606;28;20283;-81
2023/03/14 17:27:51;;;;;;;7.63;1.80;;;7.60;99.90;;;;;;4974094;28;20212;-80
2023/03/14 17:30:19;;;;;;;9.40;2.23;;;7.50;99.90;;;;;;4974635;28;20216;-80
2023/03/14 17:32:52;;;;;;;7.88;2.20;;;7.50;99.90;;;;;;4976139;28;20195;-82
2023/03/14 17:35:17;;;;;;;11.50;2.45;;;7.40;99.90;;;;;;4979550;28;20324;-81
2023/03/14 17:37:43;;;;;;;11.13;1.83;;;7.30;99.90;;;;;;4975249;28;20985;-81
2023/03/14 17:40:09;;;;;;;6.97;1.97;;;7.30;99.90;;;;;;4974004;28;20199;-81
2023/03/14 17:42:35;;;;;;;7.82;1.60;;;7.30;99.90;;;;;;4972309;28;20184;-81
2023/03/14 17:45:00;;;;;;;13.93;2.10;;;7.20;99.90;;;;;;4976086;28;20268;-81
2023/03/14 17:47:26;;;;;;;7.00;3.63;;;7.20;99.90;;;;;;4975483;28;20202;-81
2023/03/14 17:53:17;;;;;;;14.65;6.80;;;7.20;99.90;;;;;;4973188;28;20436;-83
2023/03/14 17:56:18;;;;;;;11.80;3.00;;;7.20;99.90;;;;;;4984734;28;20211;-82
2023/03/14 17:58:44;;;;;;;8.52;2.10;;;7.10;99.90;;;;;;4981970;28;20257;-82
2023/03/14 18:01:16;;;;;;;9.53;2.07;;;7.00;99.90;;;;;;4984260;28;20208;-80
2023/03/14 18:04:08;;;;;;;;;;;;;;;;;;;;;
2023/03/14 18:06:43;;;;;;;6.50;2.05;;;7.00;99.90;;;;;;4989161;28;20299;-83
2023/03/14 18:09:42;;;;;;;8.88;3.85;;;6.90;99.90;;;;;;4985110;28;20670;-82
2023/03/14 18:16:13;;;;;;;12.38;2.17;;;6.80;99.90;;;;;;4970949;28;20246;-82
2023/03/14 18:19:06;;;;;;;9.18;3.72;;;6.80;99.90;;;;;;4985297;28;20285;-82
2023/03/14 18:46:10;;;;;;;16.30;3.78;;;6.40;99.90;;;;;;5012692;28;20221;-84
2023/03/14 18:53:18;;;;;;;11.63;3.83;;;6.30;99.90;;;;;;4895705;29;20234;-84
2023/03/14 19:07:22;;;;;;;;;;;;;;;;;;;;;
2023/03/14 19:29:48;;;;;;;;;;;;;;;;;;;;;
2023/03/14 19:39:44;;;;;;;12.77;2.95;;;6.10;99.90;;;;;;5036070;28;20251;-83
2023/03/14 20:01:14;;;;;;;;;;;;;;;;;;;;;
2023/03/14 20:10:02;;;;;;;8.90;2.80;;;5.70;99.90;;;;;;5042122;28;20196;-86
2023/03/14 20:12:38;;;;;;;9.85;2.70;;;5.60;99.90;;;;;;5024710;28;20269;-85
2023/03/14 20:15:05;;;;;;;11.15;2.58;;;5.60;99.90;;;;;;5022978;28;20181;-83
2023/03/14 20:17:31;;;;;;;15.20;3.13;;;5.50;99.90;;;;;;5044150;28;20182;-85
2023/03/14 20:19:57;;;;;;;6.07;2.47;;;5.50;99.90;;;;;;5026457;28;20186;-83
2023/03/14 20:22:22;;;;;;;9.27;2.83;;;5.40;99.90;;;;;;5023925;28;20213;-86
2023/03/14 20:24:51;;;;;;;8.63;3.27;;;5.40;99.90;;;;;;5019945;28;20439;-85
2023/03/14 20:27:20;;;;;;;4.82;2.60;;;5.30;99.90;;;;;;5043531;28;20213;-84